Time;durP1;ratioP1;P1;durP2;ratioP2;P2;SDS_P1;SDS_P2;PMS_P1;PMS_P2;Temp;Humidity;BMP_temperature;BMP_pressure;BME280_temperature;BME280_humidity;BME280_pressure;Samples;Min_cycle;Max_cycle;Signal;HPM_P1;HPM_P2
2021/05/17 00:00:37;;;;;;;3.40;2.13;;;;;;;;;;4929381;28;20776;-79
2021/05/17 00:03:04;;;;;;;2.50;2.20;;;;;;;;;;4932917;28;20071;-80
2021/05/17 00:05:31;;;;;;;2.70;2.20;;;;;;;;;;4921539;28;21361;-79
2021/05/17 00:07:57;;;;;;;2.80;2.03;;;;;;;;;;4924487;28;20071;-80
2021/05/17 00:10:25;;;;;;;3.38;2.20;;;;;;;;;;4923235;28;20572;-80
2021/05/17 00:12:51;;;;;;;2.92;2.22;;;;;;;;;;4922837;28;20063;-80
2021/05/17 00:15:19;;;;;;;2.80;2.10;;;;;;;;;;4921672;28;20060;-80
2021/05/17 00:17:46;;;;;;;3.15;2.35;;;;;;;;;;4926383;28;20071;-80
2021/05/17 00:20:14;;;;;;;3.75;2.40;;;;;;;;;;4925403;28;20071;-80
2021/05/17 00:22:41;;;;;;;3.00;2.45;;;;;;;;;;4920912;28;20055;-80
2021/05/17 00:25:08;;;;;;;2.50;2.30;;;;;;;;;;4923807;28;20136;-80
2021/05/17 00:27:35;;;;;;;3.10;2.15;;;;;;;;;;4922130;28;20078;-79
2021/05/17 00:30:01;;;;;;;3.30;2.22;;;;;;;;;;4937970;28;20128;-79
2021/05/17 00:32:28;;;;;;;2.75;2.20;;;;;;;;;;4929017;28;20055;-80
2021/05/17 00:34:56;;;;;;;4.18;2.60;;;;;;;;;;4923517;28;20163;-79
2021/05/17 00:37:22;;;;;;;2.80;2.20;;;;;;;;;;4925470;28;20066;-79
2021/05/17 00:39:49;;;;;;;3.10;2.30;;;;;;;;;;4937426;28;20487;-79
2021/05/17 00:42:15;;;;;;;2.83;2.58;;;;;;;;;;4923972;28;20066;-78
2021/05/17 00:44:42;;;;;;;3.20;2.15;;;;;;;;;;4924899;28;20095;-79
2021/05/17 00:47:12;;;;;;;2.50;2.03;;;;;;;;;;4925865;28;20055;-78
2021/05/17 00:49:39;;;;;;;2.90;2.30;;;;;;;;;;4942731;28;20064;-78
2021/05/17 00:52:06;;;;;;;4.20;2.72;;;;;;;;;;4924208;28;20078;-78
2021/05/17 00:54:33;;;;;;;2.70;2.17;;;;;;;;;;4923800;28;20764;-79
2021/05/17 00:57:00;;;;;;;3.10;2.40;;;;;;;;;;4921710;28;20275;-79
2021/05/17 00:59:26;;;;;;;3.10;2.22;;;;;;;;;;4925708;28;20869;-80
2021/05/17 01:01:53;;;;;;;3.08;2.40;;;;;;;;;;4935810;28;20087;-80
2021/05/17 01:04:19;;;;;;;2.80;2.50;;;;;;;;;;4941909;28;20508;-80
2021/05/17 01:06:46;;;;;;;3.65;2.70;;;;;;;;;;4921614;28;20068;-80
2021/05/17 01:09:13;;;;;;;2.90;2.40;;;;;;;;;;4921440;28;20150;-80
2021/05/17 01:11:40;;;;;;;3.40;2.63;;;;;;;;;;4923201;28;20134;-79
2021/05/17 01:14:08;;;;;;;3.67;2.50;;;;;;;;;;4922423;28;20063;-80
2021/05/17 01:16:34;;;;;;;3.20;2.45;;;;;;;;;;4919799;28;20068;-79
2021/05/17 01:19:01;;;;;;;3.17;2.60;;;;;;;;;;4922116;28;20059;-79
2021/05/17 01:21:34;;;;;;;3.35;2.88;;;;;;;;;;4935846;28;20102;-79
2021/05/17 01:24:00;;;;;;;3.67;2.65;;;;;;;;;;4922743;28;20126;-80
2021/05/17 01:26:28;;;;;;;3.58;2.60;;;;;;;;;;4939406;28;20048;-77
2021/05/17 01:28:59;;;;;;;2.83;2.40;;;;;;;;;;4935399;28;20067;-78
2021/05/17 01:31:25;;;;;;;3.07;2.57;;;;;;;;;;4937881;28;20042;-78
2021/05/17 01:33:52;;;;;;;2.70;2.40;;;;;;;;;;4921873;28;20462;-79
2021/05/17 01:36:18;;;;;;;3.03;2.30;;;;;;;;;;4938279;28;20581;-78
2021/05/17 01:38:49;;;;;;;3.05;2.35;;;;;;;;;;4920024;28;20071;-78
2021/05/17 01:41:17;;;;;;;2.78;2.33;;;;;;;;;;4924096;28;20118;-79
2021/05/17 01:43:44;;;;;;;3.10;2.53;;;;;;;;;;4921494;28;20543;-79
2021/05/17 01:46:13;;;;;;;3.05;2.67;;;;;;;;;;4918182;28;20138;-79
2021/05/17 01:48:41;;;;;;;3.10;2.80;;;;;;;;;;4924705;28;20519;-79
2021/05/17 01:51:08;;;;;;;3.53;2.63;;;;;;;;;;4922106;28;20067;-79
2021/05/17 01:53:36;;;;;;;3.42;2.55;;;;;;;;;;4921171;28;20161;-79
2021/05/17 01:56:03;;;;;;;4.03;2.83;;;;;;;;;;4922340;28;20063;-79
2021/05/17 01:58:31;;;;;;;3.40;2.65;;;;;;;;;;4919737;28;20059;-80
2021/05/17 02:00:58;;;;;;;3.65;2.70;;;;;;;;;;4920291;28;20099;-80
2021/05/17 02:03:24;;;;;;;2.97;2.42;;;;;;;;;;4940717;28;20064;-79
2021/05/17 02:05:51;;;;;;;4.25;2.75;;;;;;;;;;4923591;28;20035;-79
2021/05/17 02:08:18;;;;;;;3.22;2.83;;;;;;;;;;4923414;28;20110;-79
2021/05/17 02:10:45;;;;;;;3.03;2.33;;;;;;;;;;4921752;28;20082;-79
2021/05/17 02:13:19;;;;;;;3.47;2.80;;;;;;;;;;4937511;28;20591;-79
2021/05/17 02:15:46;;;;;;;2.90;2.55;;;;;;;;;;4925980;28;20063;-79
2021/05/17 02:18:17;;;;;;;3.05;2.70;;;;;;;;;;4941287;28;20055;-79
2021/05/17 02:20:44;;;;;;;3.25;2.90;;;;;;;;;;4932455;28;20511;-80
2021/05/17 02:23:15;;;;;;;3.15;2.70;;;;;;;;;;4919234;28;20044;-79
2021/05/17 02:25:42;;;;;;;3.58;2.72;;;;;;;;;;4919542;28;20068;-80
2021/05/17 02:28:09;;;;;;;3.08;2.78;;;;;;;;;;4921694;28;20055;-80
2021/05/17 02:30:36;;;;;;;3.47;3.03;;;;;;;;;;4921582;28;20086;-79
2021/05/17 02:33:02;;;;;;;2.85;2.53;;;;;;;;;;4921025;28;20060;-80
2021/05/17 02:35:29;;;;;;;2.88;2.33;;;;;;;;;;4925860;28;20041;-79
2021/05/17 02:37:56;;;;;;;3.63;2.83;;;;;;;;;;4921224;28;20063;-79
2021/05/17 02:40:22;;;;;;;2.53;2.28;;;;;;;;;;4921929;28;20114;-79
2021/05/17 02:42:50;;;;;;;3.47;2.90;;;;;;;;;;4918144;28;20449;-79
2021/05/17 02:45:20;;;;;;;3.28;2.40;;;;;;;;;;4921225;28;20528;-79
2021/05/17 02:47:46;;;;;;;3.42;2.88;;;;;;;;;;4919960;28;20125;-80
2021/05/17 02:50:15;;;;;;;3.38;2.80;;;;;;;;;;4920544;28;20123;-79
2021/05/17 02:52:44;;;;;;;3.08;2.75;;;;;;;;;;4911963;28;20066;-79
2021/05/17 02:55:15;;;;;;;3.17;2.88;;;;;;;;;;4924293;28;20499;-79
2021/05/17 02:57:43;;;;;;;3.45;2.85;;;;;;;;;;4922266;28;20457;-79
2021/05/17 03:00:14;;;;;;;3.70;2.50;;;;;;;;;;4924868;28;20071;-80
2021/05/17 03:02:59;;;;;;;3.30;2.45;;;;;;;;;;4916831;28;20067;-79
2021/05/17 03:05:26;;;;;;;3.30;2.50;;;;;;;;;;4926894;28;20117;-79
2021/05/17 03:08:06;;;;;;;2.97;2.67;;;;;;;;;;4923168;28;20067;-79
2021/05/17 03:10:33;;;;;;;3.47;2.75;;;;;;;;;;4924638;28;20067;-80
2021/05/17 03:13:14;;;;;;;3.20;2.50;;;;;;;;;;4922391;28;20173;-80
2021/05/17 03:15:42;;;;;;;3.25;2.80;;;;;;;;;;4918536;28;20076;-79
2021/05/17 03:18:09;;;;;;;3.35;2.90;;;;;;;;;;4941016;28;20067;-79
2021/05/17 03:20:37;;;;;;;3.38;2.70;;;;;;;;;;4922381;28;20059;-79
2021/05/17 03:23:06;;;;;;;3.35;2.90;;;;;;;;;;4925038;28;20110;-79
2021/05/17 03:25:34;;;;;;;2.85;2.55;;;;;;;;;;4939223;28;20098;-78
2021/05/17 03:28:00;;;;;;;3.30;2.83;;;;;;;;;;4923561;28;20321;-79
2021/05/17 03:30:27;;;;;;;3.05;2.75;;;;;;;;;;4928250;28;20079;-79
2021/05/17 03:32:53;;;;;;;3.65;2.67;;;;;;;;;;4924847;28;20918;-78
2021/05/17 03:35:22;;;;;;;2.85;2.55;;;;;;;;;;4924998;28;20122;-79
2021/05/17 03:37:49;;;;;;;3.75;2.72;;;;;;;;;;4925504;28;20071;-78
2021/05/17 03:40:16;;;;;;;3.28;2.78;;;;;;;;;;4926795;28;20107;-79
2021/05/17 03:42:43;;;;;;;4.07;3.25;;;;;;;;;;4924945;28;20071;-78
2021/05/17 03:45:11;;;;;;;3.10;2.47;;;;;;;;;;4927524;28;20083;-79
2021/05/17 03:47:37;;;;;;;2.90;2.60;;;;;;;;;;4923642;28;20492;-79
2021/05/17 03:50:04;;;;;;;4.25;2.70;;;;;;;;;;4930114;28;20075;-79
2021/05/17 03:52:31;;;;;;;2.95;2.55;;;;;;;;;;4940856;28;20055;-77
2021/05/17 03:54:57;;;;;;;3.40;2.75;;;;;;;;;;4924395;28;20083;-78
2021/05/17 03:57:24;;;;;;;3.08;2.67;;;;;;;;;;4923583;28;20066;-78
2021/05/17 03:59:50;;;;;;;2.90;2.40;;;;;;;;;;4925733;28;20092;-78
2021/05/17 04:02:19;;;;;;;3.15;2.70;;;;;;;;;;4944365;28;20075;-79
2021/05/17 04:04:59;;;;;;;3.40;2.85;;;;;;;;;;4929028;28;20095;-78
2021/05/17 04:15:37;;;;;;;3.20;2.90;;;;;;;;;;4926726;28;20500;-78
2021/05/17 04:18:04;;;;;;;3.30;2.80;;;;;;;;;;4936046;28;20562;-79
2021/05/17 04:20:30;;;;;;;3.08;2.50;;;;;;;;;;4939333;28;20063;-79
2021/05/17 04:22:57;;;;;;;2.95;2.65;;;;;;;;;;4923486;28;20839;-79
2021/05/17 04:25:24;;;;;;;3.13;2.83;;;;;;;;;;4924098;28;20087;-78
2021/05/17 04:27:50;;;;;;;3.80;2.90;;;;;;;;;;4920941;28;20113;-78
2021/05/17 04:30:17;;;;;;;3.10;2.78;;;;;;;;;;4925574;28;20129;-78
2021/05/17 04:32:43;;;;;;;3.10;2.80;;;;;;;;;;4923254;28;20063;-79
2021/05/17 04:35:10;;;;;;;3.45;2.85;;;;;;;;;;4927168;28;20814;-79
2021/05/17 04:37:36;;;;;;;2.88;2.58;;;;;;;;;;4928297;28;20112;-77
2021/05/17 04:40:04;;;;;;;3.10;2.80;;;;;;;;;;4923173;28;20063;-80
2021/05/17 04:42:30;;;;;;;3.25;2.95;;;;;;;;;;4935758;28;20046;-79
2021/05/17 04:44:56;;;;;;;2.58;2.08;;;;;;;;;;4928538;28;20123;-79
2021/05/17 04:47:23;;;;;;;3.70;2.83;;;;;;;;;;4920543;28;20062;-78
2021/05/17 04:49:49;;;;;;;3.95;2.60;;;;;;;;;;4924605;28;20059;-79
2021/05/17 04:52:16;;;;;;;3.50;2.45;;;;;;;;;;4936285;28;20150;-78
2021/05/17 04:54:42;;;;;;;3.10;2.72;;;;;;;;;;4936112;28;20063;-79
2021/05/17 04:57:09;;;;;;;3.13;2.70;;;;;;;;;;4922394;28;20062;-79
2021/05/17 04:59:35;;;;;;;3.40;2.90;;;;;;;;;;4923987;28;20059;-78
2021/05/17 05:02:01;;;;;;;2.92;2.40;;;;;;;;;;4924353;28;20604;-79
2021/05/17 05:04:29;;;;;;;2.88;2.58;;;;;;;;;;4927184;28;20067;-79
2021/05/17 05:06:57;;;;;;;3.35;2.83;;;;;;;;;;4921262;28;20055;-78
2021/05/17 05:09:23;;;;;;;3.20;2.70;;;;;;;;;;4919510;28;20185;-79
2021/05/17 05:11:50;;;;;;;3.15;2.85;;;;;;;;;;4920821;28;20079;-80
2021/05/17 05:14:16;;;;;;;3.25;2.55;;;;;;;;;;4920075;28;20166;-79
2021/05/17 05:16:43;;;;;;;3.67;3.00;;;;;;;;;;4919865;28;20067;-80
2021/05/17 05:19:09;;;;;;;3.30;2.80;;;;;;;;;;4923078;28;20679;-79
2021/05/17 05:21:36;;;;;;;3.60;2.55;;;;;;;;;;4930239;28;20067;-79
2021/05/17 05:24:02;;;;;;;3.75;2.78;;;;;;;;;;4936852;28;20068;-78
2021/05/17 05:26:50;;;;;;;3.03;2.70;;;;;;;;;;4913825;28;20067;-79
2021/05/17 05:34:15;;;;;;;4.18;2.90;;;;;;;;;;4925208;28;20051;-77
2021/05/17 05:36:42;;;;;;;3.35;2.85;;;;;;;;;;4915855;28;20500;-78
2021/05/17 05:39:09;;;;;;;3.35;2.50;;;;;;;;;;4939221;28;20067;-78
2021/05/17 05:41:35;;;;;;;3.17;2.83;;;;;;;;;;4919034;28;20071;-77
2021/05/17 05:44:01;;;;;;;3.28;2.72;;;;;;;;;;4935048;28;20056;-81
2021/05/17 05:46:28;;;;;;;4.53;2.85;;;;;;;;;;4932554;28;20127;-81
2021/05/17 05:48:57;;;;;;;3.42;2.78;;;;;;;;;;4932647;28;20068;-82
2021/05/17 05:51:25;;;;;;;3.65;2.55;;;;;;;;;;4918895;28;20465;-83
2021/05/17 05:53:52;;;;;;;3.08;2.50;;;;;;;;;;4916700;28;20102;-83
2021/05/17 05:56:19;;;;;;;3.00;2.40;;;;;;;;;;4922468;28;20074;-82
2021/05/17 05:58:46;;;;;;;4.82;2.92;;;;;;;;;;4916390;28;20060;-81
2021/05/17 06:01:13;;;;;;;3.90;3.03;;;;;;;;;;4935513;28;20071;-82
2021/05/17 06:03:40;;;;;;;4.00;2.70;;;;;;;;;;4925714;28;20842;-84
2021/05/17 06:06:08;;;;;;;3.60;2.60;;;;;;;;;;4918475;28;20074;-83
2021/05/17 06:08:39;;;;;;;5.30;2.88;;;;;;;;;;4916918;28;20134;-84
2021/05/17 06:11:06;;;;;;;;;;;;;;;;;;4916817;28;20203;-81
2021/05/17 06:13:33;;;;;;;3.70;2.75;;;;;;;;;;4922853;28;20413;-83
2021/05/17 06:16:00;;;;;;;5.22;3.15;;;;;;;;;;4923194;28;20101;-82
2021/05/17 06:18:26;;;;;;;3.67;2.83;;;;;;;;;;4921817;28;20579;-85
2021/05/17 06:20:54;;;;;;;4.03;2.72;;;;;;;;;;4918063;28;20119;-87
2021/05/17 06:23:21;;;;;;;5.43;2.83;;;;;;;;;;4919584;28;20135;-86
2021/05/17 06:25:49;;;;;;;5.03;3.10;;;;;;;;;;4921180;28;20118;-85
2021/05/17 06:28:20;;;;;;;5.30;3.00;;;;;;;;;;4918737;28;20039;-85
2021/05/17 06:30:51;;;;;;;4.97;2.83;;;;;;;;;;4926406;28;20645;-86
2021/05/17 06:33:18;;;;;;;3.83;2.88;;;;;;;;;;4922917;28;20480;-86
2021/05/17 06:35:52;;;;;;;4.03;2.78;;;;;;;;;;4916491;28;20071;-85
2021/05/17 06:38:19;;;;;;;5.65;3.05;;;;;;;;;;4919297;28;20060;-86
2021/05/17 06:40:45;;;;;;;7.65;2.90;;;;;;;;;;4921279;28;20059;-85
2021/05/17 06:43:15;;;;;;;3.10;2.45;;;;;;;;;;4919362;28;20051;-85
2021/05/17 06:45:42;;;;;;;3.40;3.00;;;;;;;;;;4916922;28;20617;-83
2021/05/17 06:48:09;;;;;;;4.20;3.08;;;;;;;;;;4919030;28;20110;-84
2021/05/17 06:50:36;;;;;;;4.75;2.70;;;;;;;;;;4917312;28;20056;-78
2021/05/17 06:53:03;;;;;;;3.17;2.50;;;;;;;;;;4935735;28;21124;-85
2021/05/17 06:55:36;;;;;;;4.85;2.92;;;;;;;;;;4932888;28;20090;-83
2021/05/17 06:58:11;;;;;;;3.63;2.92;;;;;;;;;;4918782;28;20136;-85
2021/05/17 07:00:41;;;;;;;4.60;3.28;;;;;;;;;;4912687;28;20769;-85
2021/05/17 07:03:08;;;;;;;3.90;2.90;;;;;;;;;;4939606;28;20123;-86
2021/05/17 07:05:42;;;;;;;5.50;2.95;;;;;;;;;;4937069;28;20032;-87
2021/05/17 07:13:22;;;;;;;3.00;2.70;;;;;;;;;;4916353;28;20122;-85
2021/05/17 07:15:48;;;;;;;3.35;2.60;;;;;;;;;;4920132;28;20051;-84
2021/05/17 07:18:15;;;;;;;4.05;3.20;;;;;;;;;;4918400;28;20528;-87
2021/05/17 07:25:57;;;;;;;2.92;2.60;;;;;;;;;;4915865;28;20074;-84
2021/05/17 07:28:24;;;;;;;4.57;2.80;;;;;;;;;;4932570;28;20060;-83
2021/05/17 07:30:51;;;;;;;3.60;2.85;;;;;;;;;;4919313;28;20423;-80
2021/05/17 07:33:18;;;;;;;6.00;2.85;;;;;;;;;;4924697;28;20114;-86
2021/05/17 07:35:45;;;;;;;3.50;3.05;;;;;;;;;;4928157;28;20047;-87
2021/05/17 07:38:11;;;;;;;3.50;2.60;;;;;;;;;;4942346;28;20488;-87
2021/05/17 07:40:37;;;;;;;3.58;2.80;;;;;;;;;;4928120;28;20056;-85
2021/05/17 07:43:04;;;;;;;4.25;2.63;;;;;;;;;;4923134;28;20067;-84
2021/05/17 07:45:31;;;;;;;4.95;3.00;;;;;;;;;;4934163;28;20124;-87
2021/05/17 07:47:58;;;;;;;3.10;2.63;;;;;;;;;;4926428;28;20051;-87
2021/05/17 07:50:24;;;;;;;3.45;2.50;;;;;;;;;;4922351;28;20079;-85
2021/05/17 07:52:51;;;;;;;3.60;2.85;;;;;;;;;;4922947;28;20083;-84
2021/05/17 07:55:21;;;;;;;3.30;2.70;;;;;;;;;;4917303;28;20819;-84
2021/05/17 07:57:50;;;;;;;3.15;2.50;;;;;;;;;;4918152;28;20055;-83
2021/05/17 08:00:17;;;;;;;2.95;2.50;;;;;;;;;;4939376;28;20044;-85
2021/05/17 08:02:43;;;;;;;4.75;2.28;;;;;;;;;;4939024;28;20075;-84
2021/05/17 08:05:10;;;;;;;3.75;2.55;;;;;;;;;;4923419;28;20063;-83
2021/05/17 08:07:36;;;;;;;3.28;2.60;;;;;;;;;;4940706;28;20555;-83
2021/05/17 08:10:09;;;;;;;4.43;2.58;;;;;;;;;;4936799;28;20055;-85
2021/05/17 08:12:36;;;;;;;2.97;2.50;;;;;;;;;;4927299;28;20673;-84
2021/05/17 08:15:10;;;;;;;3.60;2.80;;;;;;;;;;4924444;28;20063;-84
2021/05/17 08:17:39;;;;;;;3.92;2.88;;;;;;;;;;4908432;28;20032;-82
2021/05/17 08:20:06;;;;;;;3.92;2.40;;;;;;;;;;4937504;28;20115;-85
2021/05/17 08:22:34;;;;;;;3.38;2.72;;;;;;;;;;4913197;28;20123;-83
2021/05/17 08:25:01;;;;;;;3.55;2.58;;;;;;;;;;4923782;28;20437;-84
2021/05/17 08:27:28;;;;;;;3.20;2.60;;;;;;;;;;4924621;28;20567;-87
2021/05/17 08:29:55;;;;;;;3.05;2.60;;;;;;;;;;4932024;28;20047;-84
2021/05/17 08:32:21;;;;;;;3.17;2.40;;;;;;;;;;4918177;28;20589;-84
2021/05/17 08:34:48;;;;;;;4.05;2.58;;;;;;;;;;4936468;28;20153;-86
2021/05/17 08:37:14;;;;;;;3.15;2.50;;;;;;;;;;4924743;28;20635;-86
2021/05/17 08:39:41;;;;;;;3.63;2.85;;;;;;;;;;4932981;28;20059;-85
2021/05/17 08:42:10;;;;;;;3.13;2.60;;;;;;;;;;4919070;28;20544;-84
2021/05/17 08:44:37;;;;;;;2.78;2.40;;;;;;;;;;4910869;28;20496;-79
2021/05/17 08:47:07;;;;;;;3.83;2.65;;;;;;;;;;4923299;28;20074;-87
2021/05/17 08:49:34;;;;;;;3.38;2.50;;;;;;;;;;4920923;28;20090;-84
2021/05/17 08:52:00;;;;;;;3.22;2.53;;;;;;;;;;4920286;28;20447;-83
2021/05/17 08:54:27;;;;;;;3.17;2.38;;;;;;;;;;4913275;28;20566;-84
2021/05/17 08:56:53;;;;;;;5.32;2.50;;;;;;;;;;4915227;28;20039;-83
2021/05/17 08:59:20;;;;;;;3.65;2.58;;;;;;;;;;4915500;28;20064;-83
2021/05/17 09:01:47;;;;;;;2.85;2.30;;;;;;;;;;4922166;28;20531;-78
2021/05/17 09:04:15;;;;;;;3.30;2.30;;;;;;;;;;4913542;28;20137;-81
2021/05/17 09:06:42;;;;;;;2.55;2.28;;;;;;;;;;4934312;28;20042;-81
2021/05/17 09:09:34;;;;;;;3.13;2.33;;;;;;;;;;4919539;28;20099;-80
2021/05/17 09:12:02;;;;;;;3.85;2.53;;;;;;;;;;4930071;28;20563;-78
2021/05/17 09:14:30;;;;;;;4.28;2.10;;;;;;;;;;4942083;28;20115;-80
2021/05/17 09:17:04;;;;;;;3.30;2.25;;;;;;;;;;4916483;28;20070;-80
2021/05/17 09:19:32;;;;;;;2.53;1.90;;;;;;;;;;4912868;28;20055;-79
2021/05/17 09:22:01;;;;;;;3.67;2.38;;;;;;;;;;4920486;28;20032;-77
2021/05/17 09:24:47;;;;;;;3.72;2.22;;;;;;;;;;4933118;28;20090;-76
2021/05/17 09:27:15;;;;;;;3.40;2.17;;;;;;;;;;4936173;28;20846;-76
2021/05/17 09:29:52;;;;;;;4.43;2.30;;;;;;;;;;4916992;28;20818;-78
2021/05/17 09:32:25;;;;;;;3.42;2.30;;;;;;;;;;4930848;28;21308;-76
2021/05/17 09:35:06;;;;;;;3.42;2.30;;;;;;;;;;4900184;28;20182;-77
2021/05/17 09:37:43;;;;;;;3.88;2.20;;;;;;;;;;4918727;28;20443;-76
2021/05/17 09:40:20;;;;;;;2.72;2.10;;;;;;;;;;4917414;28;21279;-77
2021/05/17 09:42:59;;;;;;;3.88;2.22;;;;;;;;;;4919359;28;20060;-76
2021/05/17 09:45:34;;;;;;;3.90;1.90;;;;;;;;;;4937503;28;20071;-77
2021/05/17 09:48:15;;;;;;;2.58;1.83;;;;;;;;;;4915074;28;20035;-76
2021/05/17 09:50:55;;;;;;;3.47;1.80;;;;;;;;;;4952057;28;20058;-75
2021/05/17 09:53:31;;;;;;;3.15;2.22;;;;;;;;;;4954246;28;20149;-76
2021/05/17 09:56:18;;;;;;;3.08;2.10;;;;;;;;;;4935990;28;20089;-78
2021/05/17 09:58:46;;;;;;;2.55;2.05;;;;;;;;;;4929973;28;20109;-77
2021/05/17 10:01:14;;;;;;;2.83;1.58;;;;;;;;;;4957242;28;20133;-76
2021/05/17 10:03:42;;;;;;;2.92;2.15;;;;;;;;;;4931435;28;20069;-77
2021/05/17 10:06:09;;;;;;;3.08;1.83;;;;;;;;;;4942755;28;20062;-76
2021/05/17 10:08:36;;;;;;;3.55;1.90;;;;;;;;;;4956265;28;20845;-75
2021/05/17 10:11:03;;;;;;;2.25;1.55;;;;;;;;;;4956421;28;20035;-77
2021/05/17 10:13:33;;;;;;;3.67;1.98;;;;;;;;;;4959794;28;20620;-76
2021/05/17 10:16:01;;;;;;;2.53;1.60;;;;;;;;;;4953069;28;20058;-80
2021/05/17 10:18:29;;;;;;;3.03;1.55;;;;;;;;;;4956679;28;20498;-80
2021/05/17 10:20:56;;;;;;;4.57;1.70;;;;;;;;;;4939880;28;20074;-79
2021/05/17 10:23:23;;;;;;;2.78;1.95;;;;;;;;;;4904074;28;20119;-78
2021/05/17 10:25:51;;;;;;;2.47;1.60;;;;;;;;;;4929136;28;20052;-78
2021/05/17 10:28:25;;;;;;;3.20;1.60;;;;;;;;;;4927252;28;20075;-79
2021/05/17 10:30:52;;;;;;;4.25;1.67;;;;;;;;;;4924147;28;20134;-80
2021/05/17 10:33:20;;;;;;;3.30;1.85;;;;;;;;;;4927691;28;20043;-79
2021/05/17 10:35:49;;;;;;;3.13;1.73;;;;;;;;;;4930765;28;20066;-81
2021/05/17 10:38:17;;;;;;;6.20;2.13;;;;;;;;;;4942327;28;20083;-79
2021/05/17 10:40:48;;;;;;;3.30;2.22;;;;;;;;;;4902510;28;20415;-79
2021/05/17 10:48:25;;;;;;;4.22;3.05;;;;;;;;;;4919051;28;20559;-79
2021/05/17 10:51:11;;;;;;;5.10;2.70;;;;;;;;;;4927960;28;20040;-79
2021/05/17 10:53:42;;;;;;;5.75;3.92;;;;;;;;;;4915396;28;20134;-79
2021/05/17 10:56:13;;;;;;;8.80;8.00;;;;;;;;;;4917343;28;20767;-79
2021/05/17 11:01:55;;;;;;;7.55;5.82;;;;;;;;;;4919001;28;20056;-82
2021/05/17 11:04:24;;;;;;;6.13;5.50;;;;;;;;;;4934555;28;20035;-81
2021/05/17 11:07:09;;;;;;;5.53;5.00;;;;;;;;;;4914441;28;20047;-80
2021/05/17 11:09:55;;;;;;;4.85;4.43;;;;;;;;;;4912526;28;20530;-81
2021/05/17 11:12:25;;;;;;;4.03;3.58;;;;;;;;;;4919227;28;20142;-80
2021/05/17 11:15:10;;;;;;;5.65;3.75;;;;;;;;;;4924472;28;20043;-80
2021/05/17 11:17:52;;;;;;;4.40;3.40;;;;;;;;;;4925534;28;20062;-81
2021/05/17 11:20:37;;;;;;;4.00;3.17;;;;;;;;;;4919209;28;20067;-81
2021/05/17 11:23:03;;;;;;;4.00;3.30;;;;;;;;;;4937106;28;20048;-79
2021/05/17 11:25:50;;;;;;;5.13;3.08;;;;;;;;;;4938246;28;20027;-81
2021/05/17 11:28:17;;;;;;;4.13;2.97;;;;;;;;;;4934795;28;20224;-80
2021/05/17 11:30:46;;;;;;;4.15;2.67;;;;;;;;;;4921398;28;20229;-80
2021/05/17 11:33:16;;;;;;;3.30;2.60;;;;;;;;;;4915121;28;20063;-80
2021/05/17 11:35:59;;;;;;;3.47;2.35;;;;;;;;;;4940239;28;20063;-79
2021/05/17 11:38:26;;;;;;;3.30;2.10;;;;;;;;;;4946421;28;20130;-79
2021/05/17 11:40:55;;;;;;;3.67;1.98;;;;;;;;;;4921187;28;20099;-79
2021/05/17 11:43:24;;;;;;;2.70;1.60;;;;;;;;;;4925340;28;20055;-79
2021/05/17 11:45:50;;;;;;;4.57;1.40;;;;;;;;;;4928609;28;20495;-80
2021/05/17 11:48:17;;;;;;;2.53;1.85;;;;;;;;;;4925621;28;20114;-76
2021/05/17 11:50:44;;;;;;;4.68;1.67;;;;;;;;;;4923521;28;20035;-81
2021/05/17 11:53:14;;;;;;;4.38;1.30;;;;;;;;;;4921282;28;20068;-80
2021/05/17 11:55:45;;;;;;;5.30;1.10;;;;;;;;;;4926629;28;20076;-80
2021/05/17 11:58:12;;;;;;;4.68;1.50;;;;;;;;;;4927547;28;20531;-78
2021/05/17 12:00:38;;;;;;;4.43;1.23;;;;;;;;;;4926029;28;20055;-78
2021/05/17 12:03:09;;;;;;;2.70;1.00;;;;;;;;;;4937648;28;20481;-79
2021/05/17 12:05:36;;;;;;;3.35;1.10;;;;;;;;;;4924040;28;20052;-78
2021/05/17 12:08:06;;;;;;;3.67;1.35;;;;;;;;;;4922176;28;20050;-79
2021/05/17 12:10:33;;;;;;;3.40;1.00;;;;;;;;;;4934759;28;20039;-79
2021/05/17 12:13:06;;;;;;;2.67;0.90;;;;;;;;;;4926565;28;20110;-81
2021/05/17 12:15:33;;;;;;;2.08;1.00;;;;;;;;;;4941703;28;20071;-79
2021/05/17 12:17:59;;;;;;;3.55;1.10;;;;;;;;;;4926673;28;20055;-78
2021/05/17 12:20:26;;;;;;;2.83;1.15;;;;;;;;;;4933156;28;20149;-78
2021/05/17 12:22:53;;;;;;;2.25;0.88;;;;;;;;;;4919377;28;20071;-79
2021/05/17 12:25:23;;;;;;;2.03;0.80;;;;;;;;;;4921494;29;20036;-79
2021/05/17 12:27:50;;;;;;;2.22;0.77;;;;;;;;;;4919823;28;20077;-80
2021/05/17 12:30:18;;;;;;;3.25;0.98;;;;;;;;;;4923887;28;20043;-78
2021/05/17 12:32:50;;;;;;;5.03;0.95;;;;;;;;;;4937017;28;20087;-79
2021/05/17 12:35:32;;;;;;;3.88;0.90;;;;;;;;;;4928977;28;20685;-80
2021/05/17 12:38:00;;;;;;;3.47;0.98;;;;;;;;;;4945261;28;20129;-80
2021/05/17 12:40:35;;;;;;;3.65;0.90;;;;;;;;;;4926389;28;20847;-80
2021/05/17 12:43:08;;;;;;;3.80;0.95;;;;;;;;;;4925818;28;20056;-79
2021/05/17 12:45:35;;;;;;;2.05;0.80;;;;;;;;;;4935586;28;20063;-78
2021/05/17 12:48:07;;;;;;;1.67;0.77;;;;;;;;;;4920443;29;20119;-80
2021/05/17 12:50:34;;;;;;;;;;;;;;;;;;4923310;28;20050;-78
2021/05/17 12:53:03;;;;;;;2.47;0.80;;;;;;;;;;4921248;28;19927;-80
2021/05/17 12:55:30;;;;;;;3.03;0.82;;;;;;;;;;4928257;28;20901;-80
2021/05/17 12:57:57;;;;;;;1.50;0.68;;;;;;;;;;4941252;28;20067;-81
2021/05/17 13:00:35;;;;;;;1.88;0.55;;;;;;;;;;4924562;28;20667;-81
2021/05/17 13:03:03;;;;;;;1.58;0.70;;;;;;;;;;4933804;28;20574;-81
2021/05/17 13:05:47;;;;;;;2.70;0.82;;;;;;;;;;4913726;29;20043;-81
2021/05/17 13:08:14;;;;;;;3.30;1.10;;;;;;;;;;4910762;29;20047;-79
2021/05/17 13:11:03;;;;;;;1.88;0.80;;;;;;;;;;4921242;28;20035;-80
2021/05/17 13:13:42;;;;;;;1.27;0.75;;;;;;;;;;4919510;28;20067;-80
2021/05/17 13:16:15;;;;;;;3.55;0.80;;;;;;;;;;4918543;28;20055;-79
2021/05/17 13:18:51;;;;;;;1.88;0.90;;;;;;;;;;4937701;28;20043;-80
2021/05/17 13:21:33;;;;;;;3.33;1.00;;;;;;;;;;4921768;29;20497;-82
2021/05/17 13:30:06;;;;;;;2.33;0.80;;;;;;;;;;4916827;28;20039;-81
2021/05/17 13:32:34;;;;;;;1.92;0.73;;;;;;;;;;4932081;28;20119;-81
2021/05/17 13:35:01;;;;;;;2.13;0.80;;;;;;;;;;4904803;28;20055;-82
2021/05/17 13:37:27;;;;;;;1.40;0.80;;;;;;;;;;4915484;29;20107;-81
2021/05/17 13:39:56;;;;;;;3.78;0.98;;;;;;;;;;4935866;28;20068;-81
2021/05/17 13:42:23;;;;;;;3.60;0.70;;;;;;;;;;4937010;28;20041;-80
2021/05/17 13:44:49;;;;;;;1.52;0.75;;;;;;;;;;4910362;28;20116;-81
2021/05/17 13:47:22;;;;;;;2.13;0.75;;;;;;;;;;4918293;28;20039;-80
2021/05/17 13:49:48;;;;;;;2.85;0.80;;;;;;;;;;4922373;28;20036;-81
2021/05/17 13:52:15;;;;;;;1.98;1.00;;;;;;;;;;4936637;28;20047;-81
2021/05/17 13:54:42;;;;;;;2.00;0.75;;;;;;;;;;4922364;28;20496;-81
2021/05/17 13:57:09;;;;;;;5.50;0.90;;;;;;;;;;4930865;28;20134;-81
2021/05/17 13:59:36;;;;;;;3.38;0.90;;;;;;;;;;4936964;28;20036;-80
2021/05/17 14:02:05;;;;;;;1.60;0.90;;;;;;;;;;4918253;28;20064;-81
2021/05/17 14:04:32;;;;;;;1.98;0.90;;;;;;;;;;4923054;28;20077;-81
2021/05/17 14:06:59;;;;;;;1.50;0.80;;;;;;;;;;4917153;28;20059;-80
2021/05/17 14:09:25;;;;;;;1.67;0.65;;;;;;;;;;4921561;28;20043;-78
2021/05/17 14:11:52;;;;;;;1.77;0.70;;;;;;;;;;4936342;28;20067;-78
2021/05/17 14:14:19;;;;;;;2.30;0.90;;;;;;;;;;4916498;28;20517;-80
2021/05/17 14:16:46;;;;;;;2.42;0.75;;;;;;;;;;4923838;28;20070;-82
2021/05/17 14:19:13;;;;;;;1.92;0.60;;;;;;;;;;4917968;28;20135;-80
2021/05/17 14:21:39;;;;;;;2.28;0.80;;;;;;;;;;4917942;28;20040;-80
2021/05/17 14:24:07;;;;;;;1.75;0.80;;;;;;;;;;4921529;28;20418;-80
2021/05/17 14:26:34;;;;;;;2.72;1.00;;;;;;;;;;4916637;28;20076;-82
2021/05/17 14:29:00;;;;;;;1.92;0.70;;;;;;;;;;4934181;28;20145;-80
2021/05/17 14:31:27;;;;;;;1.25;0.60;;;;;;;;;;4918801;28;20500;-79
2021/05/17 14:33:54;;;;;;;3.00;0.80;;;;;;;;;;4919355;28;20071;-81
2021/05/17 14:36:20;;;;;;;1.60;0.80;;;;;;;;;;4919184;28;20036;-79
2021/05/17 14:38:47;;;;;;;1.90;0.80;;;;;;;;;;4930738;28;20111;-79
2021/05/17 14:41:14;;;;;;;4.93;0.95;;;;;;;;;;4917438;28;20056;-80
2021/05/17 14:43:41;;;;;;;2.30;0.80;;;;;;;;;;4918031;28;20054;-82
2021/05/17 14:46:07;;;;;;;1.25;0.75;;;;;;;;;;4926218;28;20068;-80
2021/05/17 14:48:34;;;;;;;3.17;0.80;;;;;;;;;;4925018;28;21018;-81
2021/05/17 14:51:00;;;;;;;2.55;0.90;;;;;;;;;;4934684;28;20448;-78
2021/05/17 14:53:27;;;;;;;2.03;0.73;;;;;;;;;;4924781;28;20413;-82
2021/05/17 14:55:53;;;;;;;3.00;0.90;;;;;;;;;;4919948;28;20036;-78
2021/05/17 14:58:20;;;;;;;1.85;0.82;;;;;;;;;;4922680;28;20067;-80
2021/05/17 15:00:46;;;;;;;4.53;1.33;;;;;;;;;;4929248;28;20066;-80
2021/05/17 15:03:13;;;;;;;3.25;0.88;;;;;;;;;;4930171;28;20080;-80
2021/05/17 15:05:39;;;;;;;3.80;0.98;;;;;;;;;;4918679;28;20301;-80
2021/05/17 15:08:07;;;;;;;3.25;1.00;;;;;;;;;;4924331;28;20381;-79
2021/05/17 15:10:34;;;;;;;2.65;1.10;;;;;;;;;;4912765;28;20087;-80
2021/05/17 15:13:00;;;;;;;2.55;0.90;;;;;;;;;;4922961;28;20060;-80
2021/05/17 15:15:27;;;;;;;1.85;0.90;;;;;;;;;;4922838;28;20039;-79
2021/05/17 15:17:57;;;;;;;2.42;0.80;;;;;;;;;;4935499;28;20122;-79
2021/05/17 15:20:25;;;;;;;3.00;1.10;;;;;;;;;;4923558;28;20131;-80
2021/05/17 15:22:52;;;;;;;1.98;0.90;;;;;;;;;;4921656;28;20570;-80
2021/05/17 15:25:19;;;;;;;2.83;1.10;;;;;;;;;;4943169;28;20083;-80
2021/05/17 15:27:49;;;;;;;1.98;1.00;;;;;;;;;;4922998;28;20066;-78
2021/05/17 15:30:16;;;;;;;3.88;1.25;;;;;;;;;;4943275;28;20072;-81